sensor_id;sensor_type;location;lat;lon;timestamp;temperature;humidity
54485;DHT22;45006;56.958;24.166;2023-07-24T00:01:15;25.00;76.30
54485;DHT22;45006;56.958;24.166;2023-07-24T00:03:42;25.00;77.00
54485;DHT22;45006;56.958;24.166;2023-07-24T00:06:09;25.00;76.10
54485;DHT22;45006;56.958;24.166;2023-07-24T00:08:36;25.00;76.30
54485;DHT22;45006;56.958;24.166;2023-07-24T00:11:06;25.00;76.40
54485;DHT22;45006;56.958;24.166;2023-07-24T00:13:33;24.90;76.60
54485;DHT22;45006;56.958;24.166;2023-07-24T00:16:00;25.00;76.50
54485;DHT22;45006;56.958;24.166;2023-07-24T00:18:27;25.00;76.50
54485;DHT22;45006;56.958;24.166;2023-07-24T00:20:54;24.90;76.50
54485;DHT22;45006;56.958;24.166;2023-07-24T00:23:20;25.00;76.50
54485;DHT22;45006;56.958;24.166;2023-07-24T00:25:47;25.00;76.40
54485;DHT22;45006;56.958;24.166;2023-07-24T00:28:14;25.00;76.30
54485;DHT22;45006;56.958;24.166;2023-07-24T00:30:42;25.00;76.40
54485;DHT22;45006;56.958;24.166;2023-07-24T00:33:09;25.00;76.30
54485;DHT22;45006;56.958;24.166;2023-07-24T00:35:36;25.00;76.20
54485;DHT22;45006;56.958;24.166;2023-07-24T00:38:03;25.00;76.30
54485;DHT22;45006;56.958;24.166;2023-07-24T00:40:36;25.00;76.30
54485;DHT22;45006;56.958;24.166;2023-07-24T00:43:03;25.00;76.10
54485;DHT22;45006;56.958;24.166;2023-07-24T00:45:30;25.00;76.10
54485;DHT22;45006;56.958;24.166;2023-07-24T00:47:59;25.00;76.20
54485;DHT22;45006;56.958;24.166;2023-07-24T00:50:27;25.00;76.40
54485;DHT22;45006;56.958;24.166;2023-07-24T00:52:55;25.00;76.50
54485;DHT22;45006;56.958;24.166;2023-07-24T00:55:23;24.90;76.40
54485;DHT22;45006;56.958;24.166;2023-07-24T00:57:50;24.90;76.50
54485;DHT22;45006;56.958;24.166;2023-07-24T01:00:17;24.90;76.50
54485;DHT22;45006;56.958;24.166;2023-07-24T01:02:44;24.90;76.50
54485;DHT22;45006;56.958;24.166;2023-07-24T01:05:13;24.90;76.60
54485;DHT22;45006;56.958;24.166;2023-07-24T01:07:41;24.90;76.50
54485;DHT22;45006;56.958;24.166;2023-07-24T01:10:09;24.90;76.40
54485;DHT22;45006;56.958;24.166;2023-07-24T01:16:00;24.90;76.80
54485;DHT22;45006;56.958;24.166;2023-07-24T01:18:21;24.90;76.70
54485;DHT22;45006;56.958;24.166;2023-07-24T01:20:51;24.90;76.80
54485;DHT22;45006;56.958;24.166;2023-07-24T01:26:01;24.90;76.80
54485;DHT22;45006;56.958;24.166;2023-07-24T01:28:31;24.90;76.80
54485;DHT22;45006;56.958;24.166;2023-07-24T01:30:58;24.90;76.80
54485;DHT22;45006;56.958;24.166;2023-07-24T01:33:26;24.90;76.80
54485;DHT22;45006;56.958;24.166;2023-07-24T01:35:55;24.90;77.30
54485;DHT22;45006;56.958;24.166;2023-07-24T01:38:24;24.90;77.20
54485;DHT22;45006;56.958;24.166;2023-07-24T01:40:55;24.90;77.10
54485;DHT22;45006;56.958;24.166;2023-07-24T01:43:24;24.90;77.20
54485;DHT22;45006;56.958;24.166;2023-07-24T01:45:54;24.90;77.20
54485;DHT22;45006;56.958;24.166;2023-07-24T01:48:21;24.90;76.80
54485;DHT22;45006;56.958;24.166;2023-07-24T01:50:48;25.00;77.10
54485;DHT22;45006;56.958;24.166;2023-07-24T01:53:14;25.00;77.00
54485;DHT22;45006;56.958;24.166;2023-07-24T01:55:41;25.00;76.80
54485;DHT22;45006;56.958;24.166;2023-07-24T01:58:08;25.00;76.50
54485;DHT22;45006;56.958;24.166;2023-07-24T02:00:35;25.00;76.60
54485;DHT22;45006;56.958;24.166;2023-07-24T02:03:02;25.00;76.60
54485;DHT22;45006;56.958;24.166;2023-07-24T02:05:29;25.00;76.50
54485;DHT22;45006;56.958;24.166;2023-07-24T02:07:57;25.00;76.40
54485;DHT22;45006;56.958;24.166;2023-07-24T02:10:23;25.00;76.30
54485;DHT22;45006;56.958;24.166;2023-07-24T02:12:50;25.00;76.30
54485;DHT22;45006;56.958;24.166;2023-07-24T02:15:17;25.00;76.20
54485;DHT22;45006;56.958;24.166;2023-07-24T02:17:44;25.00;76.20
54485;DHT22;45006;56.958;24.166;2023-07-24T02:20:11;25.00;76.20
54485;DHT22;45006;56.958;24.166;2023-07-24T02:22:38;25.00;76.00
54485;DHT22;45006;56.958;24.166;2023-07-24T02:25:06;25.00;76.30
54485;DHT22;45006;56.958;24.166;2023-07-24T02:27:32;25.00;76.30
54485;DHT22;45006;56.958;24.166;2023-07-24T02:30:02;25.00;76.10
54485;DHT22;45006;56.958;24.166;2023-07-24T02:32:29;25.00;75.90
54485;DHT22;45006;56.958;24.166;2023-07-24T02:34:56;25.00;75.80
54485;DHT22;45006;56.958;24.166;2023-07-24T02:37:23;25.00;75.80
54485;DHT22;45006;56.958;24.166;2023-07-24T02:39:51;25.00;75.80
54485;DHT22;45006;56.958;24.166;2023-07-24T02:42:19;25.00;75.90
54485;DHT22;45006;56.958;24.166;2023-07-24T02:44:46;25.00;75.80
54485;DHT22;45006;56.958;24.166;2023-07-24T02:47:14;25.00;75.60
54485;DHT22;45006;56.958;24.166;2023-07-24T02:49:41;25.00;75.80
54485;DHT22;45006;56.958;24.166;2023-07-24T02:52:08;25.00;75.60
54485;DHT22;45006;56.958;24.166;2023-07-24T02:54:35;25.00;75.70
54485;DHT22;45006;56.958;24.166;2023-07-24T02:57:02;25.00;75.60
54485;DHT22;45006;56.958;24.166;2023-07-24T02:59:29;25.00;75.60
54485;DHT22;45006;56.958;24.166;2023-07-24T03:01:58;25.00;75.50
54485;DHT22;45006;56.958;24.166;2023-07-24T03:04:26;25.00;75.50
54485;DHT22;45006;56.958;24.166;2023-07-24T03:06:52;25.00;76.20
54485;DHT22;45006;56.958;24.166;2023-07-24T03:09:19;25.00;75.70
54485;DHT22;45006;56.958;24.166;2023-07-24T03:11:46;25.00;75.50
54485;DHT22;45006;56.958;24.166;2023-07-24T03:14:13;25.00;75.50
54485;DHT22;45006;56.958;24.166;2023-07-24T03:16:40;25.00;75.60
54485;DHT22;45006;56.958;24.166;2023-07-24T03:19:07;25.10;75.50
54485;DHT22;45006;56.958;24.166;2023-07-24T03:21:34;25.10;75.40
54485;DHT22;45006;56.958;24.166;2023-07-24T03:24:01;25.10;75.40
54485;DHT22;45006;56.958;24.166;2023-07-24T03:26:28;25.10;75.40
54485;DHT22;45006;56.958;24.166;2023-07-24T03:28:56;25.10;75.30
54485;DHT22;45006;56.958;24.166;2023-07-24T03:31:23;25.10;75.40
54485;DHT22;45006;56.958;24.166;2023-07-24T03:33:49;25.00;75.40
54485;DHT22;45006;56.958;24.166;2023-07-24T03:36:16;25.00;74.90
54485;DHT22;45006;56.958;24.166;2023-07-24T03:38:43;25.00;75.20
54485;DHT22;45006;56.958;24.166;2023-07-24T03:41:11;24.90;75.10
54485;DHT22;45006;56.958;24.166;2023-07-24T03:43:38;24.90;75.30
54485;DHT22;45006;56.958;24.166;2023-07-24T03:46:05;24.90;75.40
54485;DHT22;45006;56.958;24.166;2023-07-24T03:48:32;24.90;75.40
54485;DHT22;45006;56.958;24.166;2023-07-24T03:51:00;24.90;75.70
54485;DHT22;45006;56.958;24.166;2023-07-24T03:53:28;24.90;75.50
54485;DHT22;45006;56.958;24.166;2023-07-24T03:55:55;24.90;75.60
54485;DHT22;45006;56.958;24.166;2023-07-24T03:58:22;24.90;75.60
54485;DHT22;45006;56.958;24.166;2023-07-24T04:00:49;24.90;75.70
54485;DHT22;45006;56.958;24.166;2023-07-24T04:03:16;24.90;75.70
54485;DHT22;45006;56.958;24.166;2023-07-24T04:05:43;24.90;75.80
54485;DHT22;45006;56.958;24.166;2023-07-24T04:08:11;24.90;75.50
54485;DHT22;45006;56.958;24.166;2023-07-24T04:10:38;24.90;75.50
54485;DHT22;45006;56.958;24.166;2023-07-24T04:13:05;24.90;75.50
54485;DHT22;45006;56.958;24.166;2023-07-24T04:15:32;24.90;75.40
54485;DHT22;45006;56.958;24.166;2023-07-24T04:18:00;24.90;75.60
54485;DHT22;45006;56.958;24.166;2023-07-24T04:20:27;24.90;75.80
54485;DHT22;45006;56.958;24.166;2023-07-24T04:22:54;25.00;75.60
54485;DHT22;45006;56.958;24.166;2023-07-24T04:25:21;24.90;75.30
54485;DHT22;45006;56.958;24.166;2023-07-24T04:27:48;25.00;75.80
54485;DHT22;45006;56.958;24.166;2023-07-24T04:30:15;25.00;75.40
54485;DHT22;45006;56.958;24.166;2023-07-24T04:32:43;25.00;75.40
54485;DHT22;45006;56.958;24.166;2023-07-24T04:35:10;25.00;75.50
54485;DHT22;45006;56.958;24.166;2023-07-24T04:37:37;25.10;75.30
54485;DHT22;45006;56.958;24.166;2023-07-24T04:40:04;25.10;75.40
54485;DHT22;45006;56.958;24.166;2023-07-24T04:42:31;25.10;75.40
54485;DHT22;45006;56.958;24.166;2023-07-24T04:44:58;25.10;75.20
54485;DHT22;45006;56.958;24.166;2023-07-24T04:47:25;25.10;75.40
54485;DHT22;45006;56.958;24.166;2023-07-24T04:49:52;25.10;75.40
54485;DHT22;45006;56.958;24.166;2023-07-24T04:52:19;25.00;75.40
54485;DHT22;45006;56.958;24.166;2023-07-24T04:54:46;25.00;75.40
54485;DHT22;45006;56.958;24.166;2023-07-24T04:57:13;25.00;75.40
54485;DHT22;45006;56.958;24.166;2023-07-24T04:59:40;25.00;75.40
54485;DHT22;45006;56.958;24.166;2023-07-24T05:02:10;25.10;83.00
54485;DHT22;45006;56.958;24.166;2023-07-24T05:04:37;25.10;76.60
54485;DHT22;45006;56.958;24.166;2023-07-24T05:07:04;25.10;77.60
54485;DHT22;45006;56.958;24.166;2023-07-24T05:09:31;25.10;77.80
54485;DHT22;45006;56.958;24.166;2023-07-24T05:11:58;25.10;77.00
54485;DHT22;45006;56.958;24.166;2023-07-24T05:14:25;25.00;76.00
54485;DHT22;45006;56.958;24.166;2023-07-24T05:16:52;25.00;75.90
54485;DHT22;45006;56.958;24.166;2023-07-24T05:19:19;25.00;76.70
54485;DHT22;45006;56.958;24.166;2023-07-24T05:21:46;25.00;76.00
54485;DHT22;45006;56.958;24.166;2023-07-24T05:24:13;25.00;76.20
54485;DHT22;45006;56.958;24.166;2023-07-24T05:26:40;25.00;76.00
54485;DHT22;45006;56.958;24.166;2023-07-24T05:29:07;25.00;76.20
54485;DHT22;45006;56.958;24.166;2023-07-24T05:31:34;25.00;76.20
54485;DHT22;45006;56.958;24.166;2023-07-24T05:34:02;25.00;76.20
54485;DHT22;45006;56.958;24.166;2023-07-24T05:36:30;25.00;76.00
54485;DHT22;45006;56.958;24.166;2023-07-24T05:38:58;25.00;76.00
54485;DHT22;45006;56.958;24.166;2023-07-24T05:41:24;25.10;76.00
54485;DHT22;45006;56.958;24.166;2023-07-24T05:43:51;25.10;76.00
54485;DHT22;45006;56.958;24.166;2023-07-24T05:46:18;25.10;75.90
54485;DHT22;45006;56.958;24.166;2023-07-24T05:48:45;25.00;76.00
54485;DHT22;45006;56.958;24.166;2023-07-24T05:51:12;25.00;76.00
54485;DHT22;45006;56.958;24.166;2023-07-24T05:53:39;25.00;76.00
54485;DHT22;45006;56.958;24.166;2023-07-24T05:56:06;25.00;76.00
54485;DHT22;45006;56.958;24.166;2023-07-24T05:58:33;25.00;76.00
54485;DHT22;45006;56.958;24.166;2023-07-24T06:01:00;25.00;76.00
54485;DHT22;45006;56.958;24.166;2023-07-24T06:03:28;25.00;76.00
54485;DHT22;45006;56.958;24.166;2023-07-24T06:05:55;25.00;76.10
54485;DHT22;45006;56.958;24.166;2023-07-24T06:08:23;25.00;75.90
54485;DHT22;45006;56.958;24.166;2023-07-24T06:10:50;25.00;76.30
54485;DHT22;45006;56.958;24.166;2023-07-24T06:13:17;25.00;76.30
54485;DHT22;45006;56.958;24.166;2023-07-24T06:15:47;25.00;76.20
54485;DHT22;45006;56.958;24.166;2023-07-24T06:18:15;25.00;76.40
54485;DHT22;45006;56.958;24.166;2023-07-24T06:20:43;25.00;76.30
54485;DHT22;45006;56.958;24.166;2023-07-24T06:23:10;25.00;76.20
54485;DHT22;45006;56.958;24.166;2023-07-24T06:25:37;25.00;76.40
54485;DHT22;45006;56.958;24.166;2023-07-24T06:28:04;25.00;76.50
54485;DHT22;45006;56.958;24.166;2023-07-24T06:30:31;25.00;76.70
54485;DHT22;45006;56.958;24.166;2023-07-24T06:32:59;25.00;76.70
54485;DHT22;45006;56.958;24.166;2023-07-24T06:35:26;25.00;76.70
54485;DHT22;45006;56.958;24.166;2023-07-24T06:37:53;25.00;77.20
54485;DHT22;45006;56.958;24.166;2023-07-24T06:40:21;25.10;76.80
54485;DHT22;45006;56.958;24.166;2023-07-24T06:42:48;25.10;77.30
54485;DHT22;45006;56.958;24.166;2023-07-24T06:45:15;25.00;74.90
54485;DHT22;45006;56.958;24.166;2023-07-24T06:47:48;25.00;74.90
54485;DHT22;45006;56.958;24.166;2023-07-24T06:50:15;25.00;75.60
54485;DHT22;45006;56.958;24.166;2023-07-24T06:52:42;24.90;75.80
54485;DHT22;45006;56.958;24.166;2023-07-24T06:55:09;24.90;74.90
54485;DHT22;45006;56.958;24.166;2023-07-24T06:57:37;24.90;74.80
54485;DHT22;45006;56.958;24.166;2023-07-24T07:00:05;24.90;74.80
54485;DHT22;45006;56.958;24.166;2023-07-24T07:02:32;24.90;74.80
54485;DHT22;45006;56.958;24.166;2023-07-24T07:04:59;24.90;74.60
54485;DHT22;45006;56.958;24.166;2023-07-24T07:07:27;24.90;74.50
54485;DHT22;45006;56.958;24.166;2023-07-24T07:09:55;24.90;74.40
54485;DHT22;45006;56.958;24.166;2023-07-24T07:12:22;24.90;74.70
54485;DHT22;45006;56.958;24.166;2023-07-24T07:14:49;24.90;75.00
54485;DHT22;45006;56.958;24.166;2023-07-24T07:17:16;24.90;74.60
54485;DHT22;45006;56.958;24.166;2023-07-24T07:19:45;24.90;74.60
54485;DHT22;45006;56.958;24.166;2023-07-24T07:22:12;24.90;74.50
54485;DHT22;45006;56.958;24.166;2023-07-24T07:24:39;24.90;74.50
54485;DHT22;45006;56.958;24.166;2023-07-24T07:27:06;24.90;74.60
54485;DHT22;45006;56.958;24.166;2023-07-24T07:29:33;24.90;74.50
54485;DHT22;45006;56.958;24.166;2023-07-24T07:32:00;24.90;74.20
54485;DHT22;45006;56.958;24.166;2023-07-24T07:34:27;24.90;74.10
54485;DHT22;45006;56.958;24.166;2023-07-24T07:36:54;24.90;74.00
54485;DHT22;45006;56.958;24.166;2023-07-24T07:39:21;24.90;74.10
54485;DHT22;45006;56.958;24.166;2023-07-24T07:41:48;24.90;74.00
54485;DHT22;45006;56.958;24.166;2023-07-24T07:44:18;24.90;73.90
54485;DHT22;45006;56.958;24.166;2023-07-24T07:46:45;24.90;74.00
54485;DHT22;45006;56.958;24.166;2023-07-24T07:49:13;25.00;73.90
54485;DHT22;45006;56.958;24.166;2023-07-24T07:51:41;25.00;73.90
54485;DHT22;45006;56.958;24.166;2023-07-24T07:54:08;25.00;73.90
54485;DHT22;45006;56.958;24.166;2023-07-24T07:56:35;25.10;73.70
54485;DHT22;45006;56.958;24.166;2023-07-24T07:59:02;25.10;73.70
54485;DHT22;45006;56.958;24.166;2023-07-24T08:01:29;25.10;73.70
54485;DHT22;45006;56.958;24.166;2023-07-24T08:03:57;25.10;73.70
54485;DHT22;45006;56.958;24.166;2023-07-24T08:06:24;25.10;73.60
54485;DHT22;45006;56.958;24.166;2023-07-24T08:08:51;25.00;73.50
54485;DHT22;45006;56.958;24.166;2023-07-24T08:11:18;25.00;73.60
54485;DHT22;45006;56.958;24.166;2023-07-24T08:13:45;25.00;73.80
54485;DHT22;45006;56.958;24.166;2023-07-24T08:16:15;25.00;73.60
54485;DHT22;45006;56.958;24.166;2023-07-24T08:18:46;25.00;73.70
54485;DHT22;45006;56.958;24.166;2023-07-24T08:21:15;25.00;73.70
54485;DHT22;45006;56.958;24.166;2023-07-24T08:23:42;25.00;73.50
54485;DHT22;45006;56.958;24.166;2023-07-24T08:26:09;25.00;74.00
54485;DHT22;45006;56.958;24.166;2023-07-24T08:28:36;25.00;73.40
54485;DHT22;45006;56.958;24.166;2023-07-24T08:31:03;25.00;73.40
54485;DHT22;45006;56.958;24.166;2023-07-24T08:33:33;25.00;73.50
54485;DHT22;45006;56.958;24.166;2023-07-24T08:36:09;25.00;72.20
54485;DHT22;45006;56.958;24.166;2023-07-24T08:38:38;25.00;72.00
54485;DHT22;45006;56.958;24.166;2023-07-24T08:41:11;25.00;72.50
54485;DHT22;45006;56.958;24.166;2023-07-24T08:43:41;25.00;72.40
54485;DHT22;45006;56.958;24.166;2023-07-24T08:46:09;25.00;72.70
54485;DHT22;45006;56.958;24.166;2023-07-24T08:48:41;25.00;72.90
54485;DHT22;45006;56.958;24.166;2023-07-24T08:51:13;25.00;73.00
54485;DHT22;45006;56.958;24.166;2023-07-24T08:53:42;25.00;73.00
54485;DHT22;45006;56.958;24.166;2023-07-24T08:56:11;25.00;73.30
54485;DHT22;45006;56.958;24.166;2023-07-24T08:58:39;25.00;73.30
54485;DHT22;45006;56.958;24.166;2023-07-24T09:01:07;25.00;73.20
54485;DHT22;45006;56.958;24.166;2023-07-24T09:03:35;25.00;73.30
54485;DHT22;45006;56.958;24.166;2023-07-24T09:06:03;25.00;73.50
54485;DHT22;45006;56.958;24.166;2023-07-24T09:08:41;25.00;73.40
54485;DHT22;45006;56.958;24.166;2023-07-24T09:11:10;25.00;73.10
54485;DHT22;45006;56.958;24.166;2023-07-24T09:13:40;24.90;73.20
54485;DHT22;45006;56.958;24.166;2023-07-24T09:16:09;24.90;73.20
54485;DHT22;45006;56.958;24.166;2023-07-24T09:18:43;24.90;73.30
54485;DHT22;45006;56.958;24.166;2023-07-24T09:21:10;24.90;73.10
54485;DHT22;45006;56.958;24.166;2023-07-24T09:23:40;24.90;73.20
54485;DHT22;45006;56.958;24.166;2023-07-24T09:26:10;24.90;73.20
54485;DHT22;45006;56.958;24.166;2023-07-24T09:28:37;24.90;73.30
54485;DHT22;45006;56.958;24.166;2023-07-24T09:31:04;24.90;73.40
54485;DHT22;45006;56.958;24.166;2023-07-24T09:36:08;24.90;73.50
54485;DHT22;45006;56.958;24.166;2023-07-24T09:38:36;24.90;73.50
54485;DHT22;45006;56.958;24.166;2023-07-24T09:41:05;24.90;73.30
54485;DHT22;45006;56.958;24.166;2023-07-24T09:43:33;24.90;73.40
54485;DHT22;45006;56.958;24.166;2023-07-24T09:46:07;24.90;73.20
54485;DHT22;45006;56.958;24.166;2023-07-24T09:48:36;24.90;73.50
54485;DHT22;45006;56.958;24.166;2023-07-24T09:51:11;24.90;73.40
54485;DHT22;45006;56.958;24.166;2023-07-24T09:53:47;24.90;73.40
54485;DHT22;45006;56.958;24.166;2023-07-24T09:56:17;24.90;73.30
54485;DHT22;45006;56.958;24.166;2023-07-24T09:58:45;24.90;74.00
54485;DHT22;45006;56.958;24.166;2023-07-24T10:01:12;24.90;73.30
54485;DHT22;45006;56.958;24.166;2023-07-24T10:03:46;24.90;73.20
54485;DHT22;45006;56.958;24.166;2023-07-24T10:06:15;24.90;73.30
54485;DHT22;45006;56.958;24.166;2023-07-24T10:08:43;24.90;73.10
54485;DHT22;45006;56.958;24.166;2023-07-24T10:11:14;24.90;73.30
54485;DHT22;45006;56.958;24.166;2023-07-24T10:13:41;24.90;73.20
54485;DHT22;45006;56.958;24.166;2023-07-24T10:16:09;24.90;73.90
54485;DHT22;45006;56.958;24.166;2023-07-24T10:18:45;24.90;73.50
54485;DHT22;45006;56.958;24.166;2023-07-24T10:21:13;24.90;73.50
54485;DHT22;45006;56.958;24.166;2023-07-24T10:23:44;24.90;73.40
54485;DHT22;45006;56.958;24.166;2023-07-24T10:26:13;24.90;73.40
54485;DHT22;45006;56.958;24.166;2023-07-24T10:28:42;24.90;73.30
54485;DHT22;45006;56.958;24.166;2023-07-24T10:31:20;24.90;73.30
54485;DHT22;45006;56.958;24.166;2023-07-24T10:33:48;24.90;73.30
54485;DHT22;45006;56.958;24.166;2023-07-24T10:36:20;24.90;73.60
54485;DHT22;45006;56.958;24.166;2023-07-24T10:38:54;24.90;73.60
54485;DHT22;45006;56.958;24.166;2023-07-24T10:41:21;24.90;73.40
54485;DHT22;45006;56.958;24.166;2023-07-24T10:43:52;24.90;73.40
54485;DHT22;45006;56.958;24.166;2023-07-24T10:46:41;24.90;73.40
54485;DHT22;45006;56.958;24.166;2023-07-24T10:49:09;24.90;73.50
54485;DHT22;45006;56.958;24.166;2023-07-24T10:51:36;24.90;73.50
54485;DHT22;45006;56.958;24.166;2023-07-24T10:54:06;24.90;74.20
54485;DHT22;45006;56.958;24.166;2023-07-24T10:56:33;24.80;73.50
54485;DHT22;45006;56.958;24.166;2023-07-24T10:59:05;24.90;73.60
54485;DHT22;45006;56.958;24.166;2023-07-24T11:01:32;24.90;73.70
54485;DHT22;45006;56.958;24.166;2023-07-24T11:04:02;24.90;73.80
54485;DHT22;45006;56.958;24.166;2023-07-24T11:06:29;24.90;73.70
54485;DHT22;45006;56.958;24.166;2023-07-24T11:08:58;24.90;73.60
54485;DHT22;45006;56.958;24.166;2023-07-24T11:11:33;24.90;73.70
54485;DHT22;45006;56.958;24.166;2023-07-24T11:14:02;24.80;73.50
54485;DHT22;45006;56.958;24.166;2023-07-24T11:16:30;24.80;73.60
54485;DHT22;45006;56.958;24.166;2023-07-24T11:18:59;24.90;73.50
54485;DHT22;45006;56.958;24.166;2023-07-24T11:21:26;24.90;73.40
54485;DHT22;45006;56.958;24.166;2023-07-24T11:23:55;24.90;73.40
54485;DHT22;45006;56.958;24.166;2023-07-24T11:26:24;24.90;73.40
54485;DHT22;45006;56.958;24.166;2023-07-24T11:28:52;24.90;73.50
54485;DHT22;45006;56.958;24.166;2023-07-24T11:31:19;25.00;73.50
54485;DHT22;45006;56.958;24.166;2023-07-24T11:33:52;25.00;73.50
54485;DHT22;45006;56.958;24.166;2023-07-24T11:36:19;25.00;73.10
54485;DHT22;45006;56.958;24.166;2023-07-24T11:38:47;25.00;72.90
54485;DHT22;45006;56.958;24.166;2023-07-24T11:41:18;24.90;73.00
54485;DHT22;45006;56.958;24.166;2023-07-24T11:43:50;24.90;73.60
54485;DHT22;45006;56.958;24.166;2023-07-24T11:46:28;24.90;73.20
54485;DHT22;45006;56.958;24.166;2023-07-24T11:48:56;24.90;73.70
54485;DHT22;45006;56.958;24.166;2023-07-24T11:51:26;24.90;73.50
54485;DHT22;45006;56.958;24.166;2023-07-24T11:54:06;24.90;73.40
54485;DHT22;45006;56.958;24.166;2023-07-24T11:56:34;24.90;73.80
54485;DHT22;45006;56.958;24.166;2023-07-24T11:59:13;24.90;73.30
54485;DHT22;45006;56.958;24.166;2023-07-24T12:01:41;24.90;73.30
54485;DHT22;45006;56.958;24.166;2023-07-24T12:04:08;24.90;73.30
54485;DHT22;45006;56.958;24.166;2023-07-24T12:06:37;24.90;73.40
54485;DHT22;45006;56.958;24.166;2023-07-24T12:09:05;24.80;73.40
54485;DHT22;45006;56.958;24.166;2023-07-24T12:11:33;24.80;73.30
54485;DHT22;45006;56.958;24.166;2023-07-24T12:14:00;24.80;73.40
54485;DHT22;45006;56.958;24.166;2023-07-24T12:16:28;24.80;73.40
54485;DHT22;45006;56.958;24.166;2023-07-24T12:18:57;24.80;73.40
54485;DHT22;45006;56.958;24.166;2023-07-24T12:21:24;24.80;73.30
54485;DHT22;45006;56.958;24.166;2023-07-24T12:23:51;24.80;73.30
54485;DHT22;45006;56.958;24.166;2023-07-24T12:26:18;24.80;73.30
54485;DHT22;45006;56.958;24.166;2023-07-24T12:28:45;24.80;73.30
54485;DHT22;45006;56.958;24.166;2023-07-24T12:31:12;24.80;73.30
54485;DHT22;45006;56.958;24.166;2023-07-24T12:33:40;24.80;73.30
54485;DHT22;45006;56.958;24.166;2023-07-24T12:36:08;24.80;74.00
54485;DHT22;45006;56.958;24.166;2023-07-24T12:38:35;24.80;73.30
54485;DHT22;45006;56.958;24.166;2023-07-24T12:41:01;24.70;73.30
54485;DHT22;45006;56.958;24.166;2023-07-24T12:43:29;24.80;73.30
54485;DHT22;45006;56.958;24.166;2023-07-24T12:45:56;24.80;73.30
54485;DHT22;45006;56.958;24.166;2023-07-24T12:48:23;24.80;73.30
54485;DHT22;45006;56.958;24.166;2023-07-24T12:50:50;24.70;73.30
54485;DHT22;45006;56.958;24.166;2023-07-24T12:53:19;24.80;73.40
54485;DHT22;45006;56.958;24.166;2023-07-24T12:55:56;24.80;73.40
54485;DHT22;45006;56.958;24.166;2023-07-24T12:58:25;24.70;73.40
54485;DHT22;45006;56.958;24.166;2023-07-24T13:00:52;24.70;73.20
54485;DHT22;45006;56.958;24.166;2023-07-24T13:03:19;24.70;73.40
54485;DHT22;45006;56.958;24.166;2023-07-24T13:05:49;24.70;73.30
54485;DHT22;45006;56.958;24.166;2023-07-24T13:08:16;24.70;73.40
54485;DHT22;45006;56.958;24.166;2023-07-24T13:10:44;24.70;73.50
54485;DHT22;45006;56.958;24.166;2023-07-24T13:13:11;24.70;73.40
54485;DHT22;45006;56.958;24.166;2023-07-24T13:15:38;24.70;73.50
54485;DHT22;45006;56.958;24.166;2023-07-24T13:18:05;24.70;73.50
54485;DHT22;45006;56.958;24.166;2023-07-24T13:20:52;24.70;73.40
54485;DHT22;45006;56.958;24.166;2023-07-24T13:23:19;24.70;73.40
54485;DHT22;45006;56.958;24.166;2023-07-24T13:25:46;24.70;73.40
54485;DHT22;45006;56.958;24.166;2023-07-24T13:28:13;24.70;73.50
54485;DHT22;45006;56.958;24.166;2023-07-24T13:30:40;24.70;73.60
54485;DHT22;45006;56.958;24.166;2023-07-24T13:33:07;24.70;73.70
54485;DHT22;45006;56.958;24.166;2023-07-24T13:35:34;24.70;73.60
54485;DHT22;45006;56.958;24.166;2023-07-24T13:38:02;24.70;73.60
54485;DHT22;45006;56.958;24.166;2023-07-24T13:40:29;24.70;73.50
54485;DHT22;45006;56.958;24.166;2023-07-24T13:42:57;24.70;73.50
54485;DHT22;45006;56.958;24.166;2023-07-24T13:45:24;24.70;73.50
54485;DHT22;45006;56.958;24.166;2023-07-24T13:47:51;24.70;73.60
54485;DHT22;45006;56.958;24.166;2023-07-24T13:50:21;24.70;73.70
54485;DHT22;45006;56.958;24.166;2023-07-24T13:52:48;24.70;73.70
54485;DHT22;45006;56.958;24.166;2023-07-24T13:55:16;24.70;73.70
54485;DHT22;45006;56.958;24.166;2023-07-24T13:57:42;24.70;73.60
54485;DHT22;45006;56.958;24.166;2023-07-24T14:00:10;24.70;73.70
54485;DHT22;45006;56.958;24.166;2023-07-24T14:02:37;24.70;73.80
54485;DHT22;45006;56.958;24.166;2023-07-24T14:05:04;24.70;73.80
54485;DHT22;45006;56.958;24.166;2023-07-24T14:07:32;24.70;73.80
54485;DHT22;45006;56.958;24.166;2023-07-24T14:09:59;24.70;73.50
54485;DHT22;45006;56.958;24.166;2023-07-24T14:12:27;24.70;73.60
54485;DHT22;45006;56.958;24.166;2023-07-24T14:14:54;24.70;73.70
54485;DHT22;45006;56.958;24.166;2023-07-24T14:17:22;24.70;73.60
54485;DHT22;45006;56.958;24.166;2023-07-24T14:19:49;24.70;73.70
54485;DHT22;45006;56.958;24.166;2023-07-24T14:22:19;24.70;73.70
54485;DHT22;45006;56.958;24.166;2023-07-24T14:24:46;24.70;73.70
54485;DHT22;45006;56.958;24.166;2023-07-24T14:27:14;24.70;73.70
54485;DHT22;45006;56.958;24.166;2023-07-24T14:29:40;24.70;73.70
54485;DHT22;45006;56.958;24.166;2023-07-24T14:32:08;24.70;73.70
54485;DHT22;45006;56.958;24.166;2023-07-24T14:34:36;24.70;73.60
54485;DHT22;45006;56.958;24.166;2023-07-24T14:37:03;24.70;73.60
54485;DHT22;45006;56.958;24.166;2023-07-24T14:39:30;24.70;73.70
54485;DHT22;45006;56.958;24.166;2023-07-24T14:41:57;24.70;73.70
54485;DHT22;45006;56.958;24.166;2023-07-24T14:44:25;24.70;73.70
54485;DHT22;45006;56.958;24.166;2023-07-24T14:46:52;24.70;73.70
54485;DHT22;45006;56.958;24.166;2023-07-24T14:49:19;24.70;73.70
54485;DHT22;45006;56.958;24.166;2023-07-24T14:51:46;24.70;73.70
54485;DHT22;45006;56.958;24.166;2023-07-24T14:54:13;24.70;73.80
54485;DHT22;45006;56.958;24.166;2023-07-24T14:56:40;24.70;73.70
54485;DHT22;45006;56.958;24.166;2023-07-24T14:59:22;24.70;73.70
54485;DHT22;45006;56.958;24.166;2023-07-24T15:01:49;24.70;73.70
54485;DHT22;45006;56.958;24.166;2023-07-24T15:04:17;24.70;73.80
54485;DHT22;45006;56.958;24.166;2023-07-24T15:06:44;24.70;73.80
54485;DHT22;45006;56.958;24.166;2023-07-24T15:09:11;24.70;73.80
54485;DHT22;45006;56.958;24.166;2023-07-24T15:11:38;24.70;73.90
54485;DHT22;45006;56.958;24.166;2023-07-24T15:14:05;24.70;73.80
54485;DHT22;45006;56.958;24.166;2023-07-24T15:16:32;24.70;73.90
54485;DHT22;45006;56.958;24.166;2023-07-24T15:18:59;24.70;73.90
54485;DHT22;45006;56.958;24.166;2023-07-24T15:21:26;24.70;73.90
54485;DHT22;45006;56.958;24.166;2023-07-24T15:23:54;24.60;73.90
54485;DHT22;45006;56.958;24.166;2023-07-24T15:26:21;24.70;74.00
54485;DHT22;45006;56.958;24.166;2023-07-24T15:28:48;24.70;74.00